createdAt,value
2022-11-30T00:01:20.343Z,3.64
2022-11-30T00:03:47.776Z,3.60
2022-11-30T00:06:16.941Z,3.61
2022-11-30T00:08:43.636Z,3.66
2022-11-30T00:11:12.683Z,3.72
2022-11-30T00:13:39.366Z,3.74
2022-11-30T00:16:06.589Z,3.73
2022-11-30T00:18:33.295Z,3.70
2022-11-30T00:21:01.952Z,3.67
2022-11-30T00:23:36.405Z,3.68
2022-11-30T00:26:04.528Z,3.63
2022-11-30T00:28:32.930Z,3.70
2022-11-30T00:31:01.616Z,3.67
2022-11-30T00:33:29.068Z,3.59
2022-11-30T00:36:00.199Z,3.62
2022-11-30T00:38:26.843Z,3.63
2022-11-30T00:40:53.823Z,3.69
2022-11-30T00:43:20.793Z,3.65
2022-11-30T00:45:47.523Z,3.78
2022-11-30T00:48:14.261Z,3.70
2022-11-30T00:50:41.469Z,3.59
2022-11-30T00:53:08.184Z,3.59
2022-11-30T00:55:34.824Z,3.51
2022-11-30T00:58:01.492Z,3.60
2022-11-30T01:00:29.094Z,3.58
2022-11-30T01:02:56.981Z,3.60
2022-11-30T01:05:23.569Z,3.63
2022-11-30T01:07:50.388Z,3.67
2022-11-30T01:10:17.768Z,3.70
2022-11-30T01:12:44.464Z,3.76
2022-11-30T01:15:11.458Z,3.78
2022-11-30T01:17:38.087Z,3.80
2022-11-30T01:20:06.272Z,3.75
2022-11-30T01:22:32.891Z,3.69
2022-11-30T01:24:59.567Z,3.71
2022-11-30T01:27:27.384Z,3.62
2022-11-30T01:29:53.986Z,3.61
2022-11-30T01:32:20.594Z,3.67
2022-11-30T01:34:47.452Z,3.70
2022-11-30T01:37:14.251Z,3.74
2022-11-30T01:39:40.907Z,3.68
2022-11-30T01:42:14.750Z,3.74
2022-11-30T01:44:58.716Z,3.79
2022-11-30T01:47:33.106Z,3.84
2022-11-30T01:50:25.819Z,3.80
2022-11-30T01:52:56.332Z,3.83
2022-11-30T01:55:42.431Z,3.88
2022-11-30T01:58:16.636Z,3.89
2022-11-30T02:00:47.133Z,3.90
2022-11-30T02:03:23.803Z,3.91
2022-11-30T02:05:50.468Z,3.90
2022-11-30T02:08:19.024Z,3.91
2022-11-30T02:10:53.503Z,3.93
2022-11-30T02:13:52.050Z,3.91
2022-11-30T02:16:32.775Z,3.90
2022-11-30T02:19:06.051Z,3.83
2022-11-30T02:22:12.824Z,3.80
2022-11-30T02:25:15.876Z,3.77
2022-11-30T02:28:21.094Z,3.78
2022-11-30T02:30:52.975Z,3.73
2022-11-30T02:33:25.512Z,3.67
2022-11-30T02:35:55.317Z,3.61
2022-11-30T02:38:24.101Z,3.52
2022-11-30T02:40:50.806Z,3.58
2022-11-30T02:43:20.274Z,3.58
2022-11-30T02:45:50.678Z,3.56
2022-11-30T02:48:24.519Z,3.62
2022-11-30T02:50:55.139Z,3.63
2022-11-30T02:53:22.207Z,3.61
2022-11-30T02:55:48.845Z,3.65
2022-11-30T02:58:17.239Z,3.54
2022-11-30T03:00:43.896Z,3.61
2022-11-30T03:03:10.549Z,3.59
2022-11-30T03:05:37.205Z,3.63
2022-11-30T03:08:03.919Z,3.64
2022-11-30T03:10:30.560Z,3.69
2022-11-30T03:13:00.825Z,3.72
2022-11-30T03:15:27.931Z,3.67
2022-11-30T03:17:54.594Z,3.77
2022-11-30T03:20:21.220Z,3.75
2022-11-30T03:22:47.842Z,3.75
2022-11-30T03:25:14.691Z,3.76
2022-11-30T03:27:41.312Z,3.73
2022-11-30T03:30:08.430Z,3.82
2022-11-30T03:32:35.089Z,3.80
2022-11-30T03:35:01.739Z,3.80
2022-11-30T03:37:28.334Z,3.83
2022-11-30T03:39:58.078Z,3.86
2022-11-30T03:42:25.403Z,3.88
2022-11-30T03:44:52.057Z,3.86
2022-11-30T03:47:18.721Z,3.92
2022-11-30T03:49:45.318Z,3.84
2022-11-30T03:52:12.013Z,3.94
2022-11-30T03:54:38.658Z,3.94
2022-11-30T03:57:05.283Z,3.96
2022-11-30T03:59:31.885Z,3.99
2022-11-30T04:01:58.556Z,3.96
2022-11-30T04:04:25.190Z,3.96
2022-11-30T04:06:51.764Z,3.97
2022-11-30T04:09:18.398Z,3.98
2022-11-30T04:11:47.193Z,4.01
2022-11-30T04:14:13.935Z,4.01
2022-11-30T04:16:40.583Z,4.00
2022-11-30T04:19:07.176Z,4.02
2022-11-30T04:21:33.793Z,3.99
2022-11-30T04:24:00.621Z,4.00
2022-11-30T04:26:27.289Z,4.03
2022-11-30T04:28:53.902Z,4.02
2022-11-30T04:31:20.651Z,4.04
2022-11-30T04:33:47.380Z,4.02
2022-11-30T04:36:19.864Z,4.06
2022-11-30T04:38:47.126Z,4.05
2022-11-30T04:41:13.820Z,4.05
2022-11-30T04:43:40.584Z,4.05
2022-11-30T04:46:07.916Z,4.09
2022-11-30T04:48:34.800Z,4.11
2022-11-30T04:51:06.199Z,4.16
2022-11-30T04:53:36.537Z,4.14
2022-11-30T04:56:08.068Z,4.18
2022-11-30T04:58:34.988Z,4.17
2022-11-30T05:01:01.650Z,4.20
2022-11-30T05:03:28.266Z,4.14
2022-11-30T05:05:54.873Z,4.14
2022-11-30T05:08:21.577Z,4.18
2022-11-30T05:10:55.414Z,4.17
2022-11-30T05:13:23.881Z,4.17
2022-11-30T05:15:50.975Z,4.16
2022-11-30T05:18:17.782Z,4.26
2022-11-30T05:20:51.109Z,4.20
2022-11-30T05:23:18.878Z,4.21
2022-11-30T05:25:46.414Z,4.22
2022-11-30T05:28:13.967Z,4.26
2022-11-30T05:30:41.721Z,4.31
2022-11-30T05:33:08.422Z,4.27
2022-11-30T05:35:35.331Z,4.30
2022-11-30T05:38:02.155Z,4.31
2022-11-30T05:40:30.180Z,4.26
2022-11-30T05:42:57.974Z,4.25
2022-11-30T05:45:25.029Z,4.26
2022-11-30T05:47:51.994Z,4.25
2022-11-30T05:50:19.137Z,4.30
2022-11-30T05:52:45.833Z,4.33
2022-11-30T05:55:12.456Z,4.33
2022-11-30T05:57:40.645Z,4.31
2022-11-30T06:00:09.443Z,4.31
2022-11-30T06:02:36.241Z,4.30
2022-11-30T06:05:02.995Z,4.29
2022-11-30T06:07:29.829Z,4.30
2022-11-30T06:09:56.674Z,4.31
2022-11-30T06:12:23.277Z,4.33
2022-11-30T06:14:50.952Z,4.29
2022-11-30T06:17:17.877Z,4.23
2022-11-30T06:19:44.515Z,4.18
2022-11-30T06:22:11.141Z,4.21
2022-11-30T06:24:37.823Z,4.24
2022-11-30T06:27:04.563Z,4.33
2022-11-30T06:29:31.146Z,4.35
2022-11-30T06:31:58.086Z,4.30
2022-11-30T06:34:24.794Z,4.38
2022-11-30T06:36:51.363Z,4.39
2022-11-30T06:39:31.395Z,4.36
2022-11-30T06:42:04.959Z,4.33
2022-11-30T06:44:31.564Z,4.35
2022-11-30T06:46:58.175Z,4.40
2022-11-30T06:49:24.850Z,4.38
2022-11-30T06:51:51.479Z,4.38
2022-11-30T06:54:18.079Z,4.37
2022-11-30T06:56:44.663Z,4.26
2022-11-30T06:59:11.342Z,4.31
2022-11-30T07:01:37.957Z,4.40
2022-11-30T07:04:04.919Z,4.41
2022-11-30T07:06:31.680Z,4.38
2022-11-30T07:08:58.272Z,4.39
2022-11-30T07:11:24.924Z,4.41
2022-11-30T07:13:51.514Z,4.38
2022-11-30T07:16:18.232Z,4.33
2022-11-30T07:18:44.893Z,4.32
2022-11-30T07:21:11.954Z,4.24
2022-11-30T07:23:57.314Z,4.27
2022-11-30T07:26:26.370Z,4.29
2022-11-30T07:28:55.307Z,4.33
2022-11-30T07:31:30.434Z,4.37
2022-11-30T07:33:58.741Z,4.37
2022-11-30T07:36:27.268Z,4.36
2022-11-30T07:38:53.988Z,4.37
2022-11-30T07:41:20.692Z,4.39
2022-11-30T07:43:47.479Z,4.38
2022-11-30T07:46:16.448Z,4.42
2022-11-30T07:48:45.107Z,4.36
2022-11-30T07:51:20.710Z,4.40
2022-11-30T07:53:47.690Z,4.44
2022-11-30T07:56:17.411Z,4.46
2022-11-30T07:58:44.238Z,4.43
2022-11-30T08:01:14.489Z,4.47
2022-11-30T08:03:41.602Z,4.50
2022-11-30T08:06:11.656Z,4.50
2022-11-30T08:08:41.014Z,4.52
2022-11-30T08:11:10.382Z,4.54
2022-11-30T08:13:37.795Z,4.60
2022-11-30T08:16:07.130Z,4.57
2022-11-30T08:18:33.951Z,4.59
2022-11-30T08:21:03.277Z,4.65
2022-11-30T08:23:42.889Z,4.64
2022-11-30T08:26:19.080Z,4.62
2022-11-30T08:28:47.528Z,4.57
2022-11-30T08:31:17.313Z,4.58
2022-11-30T08:33:44.082Z,4.56
2022-11-30T08:36:14.751Z,4.60
2022-11-30T08:38:43.321Z,4.61
2022-11-30T08:41:11.754Z,4.57
2022-11-30T08:43:38.658Z,4.57
2022-11-30T08:46:27.388Z,4.65
2022-11-30T08:49:12.563Z,4.65
2022-11-30T08:52:08.675Z,4.70
2022-11-30T08:54:27.523Z,4.69
2022-11-30T08:56:54.168Z,4.74
2022-11-30T08:59:20.802Z,4.78
2022-11-30T09:01:47.415Z,4.80
2022-11-30T09:04:14.034Z,4.82
2022-11-30T09:06:41.963Z,4.86
2022-11-30T09:09:08.869Z,4.92
2022-11-30T09:11:35.480Z,4.93
2022-11-30T09:14:09.300Z,4.93
2022-11-30T09:16:36.473Z,5.00
2022-11-30T09:19:03.619Z,4.98
2022-11-30T09:21:30.529Z,5.03
2022-11-30T09:23:57.952Z,5.04
2022-11-30T09:26:27.682Z,5.03
2022-11-30T09:28:54.644Z,5.06
2022-11-30T09:31:25.582Z,5.10
2022-11-30T09:33:53.299Z,5.11
2022-11-30T09:36:22.110Z,5.16
2022-11-30T09:38:49.474Z,5.20
2022-11-30T09:41:43.698Z,5.21
2022-11-30T09:44:46.438Z,5.24
2022-11-30T09:47:37.951Z,5.24
2022-11-30T09:50:16.815Z,5.30
2022-11-30T09:52:49.569Z,5.37
2022-11-30T09:55:29.025Z,5.39
2022-11-30T09:58:01.976Z,5.43
2022-11-30T10:00:29.034Z,5.50
2022-11-30T10:02:57.719Z,5.56
2022-11-30T10:05:48.151Z,5.58
2022-11-30T10:08:47.391Z,5.64
2022-11-30T10:11:43.284Z,5.70
2022-11-30T10:14:28.649Z,5.73
2022-11-30T10:17:22.691Z,5.79
2022-11-30T10:20:04.639Z,5.79
2022-11-30T10:23:00.907Z,5.83
2022-11-30T10:25:33.466Z,5.83
2022-11-30T10:28:46.541Z,5.82
2022-11-30T10:31:15.087Z,5.78
2022-11-30T10:33:50.366Z,5.84
2022-11-30T10:36:39.707Z,5.92
2022-11-30T10:39:24.656Z,5.98
2022-11-30T10:41:57.546Z,6.03
2022-11-30T10:44:59.168Z,6.09
2022-11-30T10:47:34.053Z,6.13
2022-11-30T10:50:00.933Z,6.18
2022-11-30T10:52:51.473Z,6.18
2022-11-30T10:55:24.324Z,6.25
2022-11-30T10:57:57.827Z,6.29
2022-11-30T11:00:24.766Z,6.30
2022-11-30T11:02:51.913Z,6.32
2022-11-30T11:05:25.151Z,6.34
2022-11-30T11:08:07.061Z,6.34
2022-11-30T11:10:44.093Z,6.31
2022-11-30T11:13:18.918Z,6.41
2022-11-30T11:16:00.193Z,6.46
2022-11-30T11:18:29.972Z,6.52
2022-11-30T11:21:18.509Z,6.53
2022-11-30T11:23:47.334Z,6.51
2022-11-30T11:26:25.721Z,6.53
2022-11-30T11:28:54.974Z,6.58
2022-11-30T11:31:39.370Z,6.64
2022-11-30T11:34:32.452Z,6.61
2022-11-30T11:37:16.523Z,6.53
2022-11-30T11:39:43.414Z,6.57
2022-11-30T11:42:22.385Z,6.52
2022-11-30T11:44:54.940Z,6.56
2022-11-30T11:47:35.657Z,6.64
2022-11-30T11:50:50.291Z,6.60
2022-11-30T11:53:23.016Z,6.57
2022-11-30T11:55:53.988Z,6.52
2022-11-30T11:58:31.929Z,6.52
2022-11-30T12:01:17.130Z,6.51
2022-11-30T12:03:57.063Z,6.47
2022-11-30T12:06:24.290Z,6.50
2022-11-30T12:08:57.381Z,6.54
2022-11-30T12:11:39.858Z,6.59
2022-11-30T12:14:13.783Z,6.71
2022-11-30T12:17:07.518Z,6.77
2022-11-30T12:19:39.387Z,6.84
2022-11-30T12:22:41.942Z,6.84
2022-11-30T12:25:31.017Z,6.85
2022-11-30T12:28:15.938Z,6.91
2022-11-30T12:30:50.391Z,6.99
2022-11-30T12:33:25.335Z,6.97
2022-11-30T12:36:02.232Z,6.94
2022-11-30T12:38:47.283Z,6.94
2022-11-30T12:41:29.068Z,6.91
2022-11-30T12:44:01.590Z,6.94
2022-11-30T12:47:03.404Z,6.94
2022-11-30T12:49:30.477Z,7.02
2022-11-30T12:52:25.115Z,7.08
2022-11-30T12:54:54.420Z,7.16
2022-11-30T12:57:36.947Z,7.19
2022-11-30T13:00:23.155Z,7.02
2022-11-30T13:02:52.783Z,6.99
2022-11-30T13:05:27.220Z,7.05
2022-11-30T13:08:05.551Z,7.00
2022-11-30T13:10:50.055Z,6.97
2022-11-30T13:13:21.432Z,6.96
2022-11-30T13:15:49.777Z,6.86
2022-11-30T13:18:19.569Z,6.85
2022-11-30T13:21:23.020Z,6.92
2022-11-30T13:24:12.786Z,6.98
2022-11-30T13:27:01.763Z,6.95
2022-11-30T13:29:52.302Z,6.98
2022-11-30T13:32:56.226Z,7.00
2022-11-30T13:35:28.893Z,6.94
2022-11-30T13:41:08.751Z,6.69
2022-11-30T13:43:42.344Z,6.62
2022-11-30T13:46:18.874Z,6.61
2022-11-30T13:48:46.631Z,6.63
2022-11-30T13:51:33.635Z,6.57
2022-11-30T13:54:43.336Z,6.58
2022-11-30T13:57:25.554Z,6.59
2022-11-30T13:59:53.706Z,6.57
2022-11-30T14:05:19.819Z,6.64
2022-11-30T14:08:07.105Z,6.67
2022-11-30T14:10:33.776Z,6.65
2022-11-30T14:13:11.344Z,6.71
2022-11-30T14:15:42.398Z,6.68
2022-11-30T14:18:09.022Z,6.73
2022-11-30T14:20:50.553Z,6.74
2022-11-30T14:23:32.123Z,6.71
2022-11-30T14:26:10.799Z,6.64
2022-11-30T14:29:20.545Z,6.65
2022-11-30T14:32:06.204Z,6.70
2022-11-30T14:34:41.692Z,6.63
2022-11-30T14:37:25.111Z,6.49
2022-11-30T14:39:57.711Z,6.50
2022-11-30T14:42:31.193Z,6.49
2022-11-30T14:44:59.178Z,6.49
2022-11-30T14:47:33.457Z,6.40
2022-11-30T14:50:06.519Z,6.29
2022-11-30T14:53:04.173Z,6.31
2022-11-30T14:55:44.304Z,6.26
2022-11-30T14:58:53.433Z,6.19
2022-11-30T15:01:25.451Z,6.08
2022-11-30T15:03:55.998Z,6.09
2022-11-30T15:06:30.852Z,6.01
2022-11-30T15:08:59.946Z,6.00
2022-11-30T15:11:27.347Z,5.99
2022-11-30T15:14:08.399Z,6.04
2022-11-30T15:16:35.886Z,6.02
2022-11-30T15:19:21.845Z,6.04
2022-11-30T15:21:49.722Z,6.07
2022-11-30T15:24:17.366Z,6.08
2022-11-30T15:27:08.652Z,5.98
2022-11-30T15:29:43.085Z,5.93
2022-11-30T15:32:19.218Z,5.96
2022-11-30T15:34:54.950Z,6.01
2022-11-30T15:37:41.111Z,6.01
2022-11-30T15:40:10.802Z,6.00
2022-11-30T15:42:40.408Z,5.99
2022-11-30T15:45:20.712Z,6.00
2022-11-30T15:47:47.932Z,6.07
2022-11-30T15:50:26.823Z,6.02
2022-11-30T15:52:55.564Z,6.02
2022-11-30T15:55:46.874Z,5.96
2022-11-30T15:58:37.329Z,5.86
2022-11-30T16:01:19.469Z,5.83
2022-11-30T16:03:55.226Z,5.88
2022-11-30T16:06:26.042Z,5.81
2022-11-30T16:08:54.399Z,5.77
2022-11-30T16:11:22.695Z,5.76
2022-11-30T16:13:49.542Z,5.72
2022-11-30T16:16:28.653Z,5.73
2022-11-30T16:18:55.530Z,5.78
2022-11-30T16:21:22.460Z,5.89
2022-11-30T16:23:49.232Z,5.94
2022-11-30T16:29:04.824Z,5.88
2022-11-30T16:31:32.131Z,5.85
2022-11-30T16:33:59.015Z,5.85
2022-11-30T16:36:26.806Z,5.87
2022-11-30T16:38:53.953Z,5.91
2022-11-30T16:41:26.314Z,5.94
2022-11-30T16:44:13.733Z,5.92
2022-11-30T16:46:40.380Z,5.93
2022-11-30T16:49:07.167Z,5.94
2022-11-30T16:51:36.877Z,5.93
2022-11-30T16:54:04.354Z,5.97
2022-11-30T16:56:31.320Z,5.97
2022-11-30T16:58:57.964Z,5.93
2022-11-30T17:01:35.905Z,5.92
2022-11-30T17:04:23.842Z,5.96
2022-11-30T17:06:54.684Z,5.93
2022-11-30T17:09:24.066Z,5.93
2022-11-30T17:11:51.338Z,5.89
2022-11-30T17:14:19.441Z,5.88
2022-11-30T17:16:46.847Z,5.83
2022-11-30T17:19:13.929Z,5.84
2022-11-30T17:21:43.006Z,5.84
2022-11-30T17:24:09.916Z,5.83
2022-11-30T17:26:36.587Z,5.67
2022-11-30T17:29:03.495Z,5.70
2022-11-30T17:31:30.321Z,5.70
2022-11-30T17:33:57.099Z,5.73
2022-11-30T17:36:24.967Z,5.75
2022-11-30T17:38:51.762Z,5.79
2022-11-30T17:41:20.112Z,5.80
2022-11-30T17:43:48.464Z,5.88
2022-11-30T17:46:17.288Z,5.91
2022-11-30T17:48:44.803Z,5.86
2022-11-30T17:51:12.878Z,5.78
2022-11-30T17:53:40.884Z,5.76
2022-11-30T17:56:08.966Z,5.80
2022-11-30T17:58:43.773Z,5.73
2022-11-30T18:01:24.647Z,5.72
2022-11-30T18:03:53.093Z,5.78
2022-11-30T18:06:21.151Z,5.78
2022-11-30T18:08:48.178Z,5.73
2022-11-30T18:11:20.287Z,5.68
2022-11-30T18:13:55.668Z,5.68
2022-11-30T18:16:25.479Z,5.71
2022-11-30T18:18:53.047Z,5.72
2022-11-30T18:21:23.296Z,5.79
2022-11-30T18:23:51.804Z,5.75
2022-11-30T18:26:21.133Z,5.67
2022-11-30T18:28:53.105Z,5.63
2022-11-30T18:31:20.232Z,5.57
2022-11-30T18:33:47.106Z,5.59
2022-11-30T18:36:14.299Z,5.62
2022-11-30T18:38:44.580Z,5.62
2022-11-30T18:41:11.235Z,5.60
2022-11-30T18:43:38.418Z,5.55
2022-11-30T18:46:10.453Z,5.52
2022-11-30T18:48:38.444Z,5.53
2022-11-30T18:51:23.180Z,5.54
2022-11-30T18:53:50.060Z,5.43
2022-11-30T18:56:19.701Z,5.43
2022-11-30T18:58:47.597Z,5.36
2022-11-30T19:01:20.127Z,5.43
2022-11-30T19:03:55.781Z,5.42
2022-11-30T19:06:24.870Z,5.39
2022-11-30T19:08:53.364Z,5.39
2022-11-30T19:11:21.013Z,5.47
2022-11-30T19:13:49.470Z,5.43
2022-11-30T19:16:17.989Z,5.33
2022-11-30T19:18:45.721Z,5.32
2022-11-30T19:21:15.665Z,5.40
2022-11-30T19:23:42.982Z,5.45
2022-11-30T19:26:10.389Z,5.46
2022-11-30T19:28:38.940Z,5.53
2022-11-30T19:31:17.414Z,5.47
2022-11-30T19:33:47.133Z,5.45
2022-11-30T19:36:19.068Z,5.36
2022-11-30T19:38:46.009Z,5.29
2022-11-30T19:41:15.100Z,5.25
2022-11-30T19:43:58.123Z,5.29
2022-11-30T19:46:30.637Z,5.38
2022-11-30T19:49:00.743Z,5.34
2022-11-30T19:51:29.233Z,5.34
2022-11-30T19:53:57.710Z,5.38
2022-11-30T19:56:25.795Z,5.40
2022-11-30T19:58:52.824Z,5.43
2022-11-30T20:01:26.007Z,5.44
2022-11-30T20:03:55.377Z,5.44
2022-11-30T20:06:26.705Z,5.48
2022-11-30T20:08:53.417Z,5.45
2022-11-30T20:11:20.498Z,5.48
2022-11-30T20:13:47.862Z,5.50
2022-11-30T20:16:17.148Z,5.51
2022-11-30T20:18:46.561Z,5.50
2022-11-30T20:21:19.607Z,5.54
2022-11-30T20:23:50.377Z,5.60
2022-11-30T20:26:22.503Z,5.60
2022-11-30T20:28:50.766Z,5.65
2022-11-30T20:31:20.420Z,5.64
2022-11-30T20:33:47.888Z,5.65
2022-11-30T20:36:15.884Z,5.61
2022-11-30T20:38:43.656Z,5.67
2022-11-30T20:41:12.383Z,5.71
2022-11-30T20:43:39.120Z,5.74
2022-11-30T20:46:28.353Z,5.77
2022-11-30T20:48:56.211Z,5.75
2022-11-30T20:51:33.227Z,5.72
2022-11-30T20:54:09.304Z,5.73
2022-11-30T20:56:37.509Z,5.71
2022-11-30T20:59:07.330Z,5.72
2022-11-30T21:01:34.822Z,5.72
2022-11-30T21:04:01.978Z,5.76
2022-11-30T21:06:30.074Z,5.74
2022-11-30T21:08:57.309Z,5.76
2022-11-30T21:11:25.558Z,5.75
2022-11-30T21:13:52.861Z,5.79
2022-11-30T21:16:27.719Z,5.78
2022-11-30T21:18:57.270Z,5.79
2022-11-30T21:21:26.105Z,5.79
2022-11-30T21:23:53.942Z,5.83
2022-11-30T21:26:22.187Z,5.82
2022-11-30T21:28:53.489Z,5.82
2022-11-30T21:34:31.067Z,5.79
2022-11-30T21:36:57.753Z,5.79
2022-11-30T21:39:24.904Z,5.78
2022-11-30T21:41:51.650Z,5.77
2022-11-30T21:44:18.329Z,5.77
2022-11-30T21:46:48.235Z,5.75
2022-11-30T21:49:16.057Z,5.77
2022-11-30T21:51:48.917Z,5.78
2022-11-30T21:54:15.841Z,5.80
2022-11-30T21:56:43.848Z,5.83
2022-11-30T21:59:12.605Z,5.87
2022-11-30T22:01:42.343Z,5.87
2022-11-30T22:04:11.617Z,5.85
2022-11-30T22:06:40.294Z,5.81
2022-11-30T22:09:11.168Z,5.83
2022-11-30T22:11:40.389Z,5.81
2022-11-30T22:14:12.015Z,5.78
2022-11-30T22:16:39.166Z,5.81
2022-11-30T22:19:07.455Z,5.80
2022-11-30T22:21:34.964Z,5.81
2022-11-30T22:24:07.236Z,5.78
2022-11-30T22:26:39.396Z,5.75
2022-11-30T22:29:17.486Z,5.73
2022-11-30T22:31:46.914Z,5.73
2022-11-30T22:34:14.190Z,5.77
2022-11-30T22:36:42.844Z,5.79
2022-11-30T22:39:16.921Z,5.81
2022-11-30T22:41:45.480Z,5.82
2022-11-30T22:44:13.993Z,5.81
2022-11-30T22:46:41.473Z,5.77
2022-11-30T22:49:10.189Z,5.72
2022-11-30T22:51:38.237Z,5.72
2022-11-30T22:54:05.589Z,5.71
2022-11-30T22:56:41.514Z,5.67
2022-11-30T22:59:11.532Z,5.67
2022-11-30T23:01:42.610Z,5.64
2022-11-30T23:04:12.419Z,5.66
2022-11-30T23:06:41.203Z,5.65
2022-11-30T23:09:11.577Z,5.67
2022-11-30T23:11:38.316Z,5.68
2022-11-30T23:14:08.032Z,5.64
2022-11-30T23:16:36.326Z,5.60
2022-11-30T23:19:03.230Z,5.60
2022-11-30T23:21:37.324Z,5.57
2022-11-30T23:24:09.777Z,5.57
2022-11-30T23:26:38.326Z,5.57
2022-11-30T23:29:08.433Z,5.53
2022-11-30T23:31:38.042Z,5.47
2022-11-30T23:34:08.493Z,5.41
2022-11-30T23:36:35.774Z,5.35
2022-11-30T23:39:05.607Z,5.26
2022-11-30T23:41:32.377Z,5.17
2022-11-30T23:43:59.073Z,5.09
2022-11-30T23:46:26.197Z,4.97
2022-11-30T23:48:52.915Z,4.82
2022-11-30T23:51:19.564Z,4.73
2022-11-30T23:53:46.392Z,4.68
2022-11-30T23:56:15.609Z,4.63
2022-11-30T23:58:42.636Z,4.62
